Time;durP1;ratioP1;P1;durP2;ratioP2;P2;SDS_P1;SDS_P2;PMS_P1;PMS_P2;Temp;Humidity;BMP_temperature;BMP_pressure;BME280_temperature;BME280_humidity;BME280_pressure;Samples;Min_cycle;Max_cycle;Signal;HPM_P1;HPM_P2
2022/09/11 00:00:46;;;;;;;44.10;22.58;;;;;;;16.35;89.41;101727.63;5045765;28;20040;-79
2022/09/11 00:03:11;;;;;;;43.92;20.65;;;;;;;16.34;89.64;101731.69;5057139;28;20048;-80
2022/09/11 00:05:39;;;;;;;39.78;22.48;;;;;;;16.39;88.76;101741.78;5050832;28;20101;-79
2022/09/11 00:08:06;;;;;;;46.05;22.67;;;;;;;16.38;89.88;101731.66;5057740;28;20548;-79
2022/09/11 00:10:39;;;;;;;41.38;22.77;;;;;;;16.30;90.52;101728.03;5060499;28;20043;-79
2022/09/11 00:13:15;;;;;;;43.33;22.17;;;;;;;16.32;89.79;101719.97;5057051;28;20471;-79
2022/09/11 00:15:42;;;;;;;42.65;24.48;;;;;;;16.30;89.55;101725.19;5043406;28;20039;-79
2022/09/11 00:18:13;;;;;;;43.67;22.33;;;;;;;16.38;88.87;101738.16;5044552;28;20112;-79
2022/09/11 00:20:39;;;;;;;43.95;24.10;;;;;;;16.39;89.25;101734.09;5053373;28;20044;-79
2022/09/11 00:23:04;;;;;;;42.03;22.77;;;;;;;16.28;89.47;101735.28;5056172;28;20048;-79
2022/09/11 00:25:34;;;;;;;44.25;25.20;;;;;;;16.26;89.91;101730.03;5052993;28;20043;-79
2022/09/11 00:28:01;;;;;;;51.78;25.88;;;;;;;16.16;90.58;101733.59;5042091;28;20373;-80
2022/09/11 00:30:27;;;;;;;47.35;24.30;;;;;;;16.22;90.04;101729.19;5039397;28;20742;-80
2022/09/11 00:32:53;;;;;;;43.65;23.52;;;;;;;16.33;89.04;101724.38;5044643;28;20045;-80
2022/09/11 00:35:19;;;;;;;48.15;26.08;;;;;;;16.24;89.66;101724.75;5039892;28;20043;-80
2022/09/11 00:37:44;;;;;;;47.60;23.15;;;;;;;16.26;89.34;101722.34;5053321;28;20032;-79
2022/09/11 00:40:10;;;;;;;38.47;21.55;;;;;;;16.31;89.01;101726.81;5040735;28;20055;-79
2022/09/11 00:42:35;;;;;;;47.28;24.95;;;;;;;16.20;89.72;101725.97;5045726;28;20657;-79
2022/09/11 00:45:05;;;;;;;41.95;22.60;;;;;;;16.20;90.01;101738.06;5052757;28;20041;-80
2022/09/11 00:47:31;;;;;;;50.15;26.55;;;;;;;16.20;89.69;101731.59;5055574;28;20036;-79
2022/09/11 00:50:08;;;;;;;47.92;24.90;;;;;;;16.12;90.55;101724.31;5040689;28;20372;-79
2022/09/11 00:52:39;;;;;;;47.72;25.77;;;;;;;16.09;90.40;101733.56;5039055;28;20059;-79
2022/09/11 00:55:11;;;;;;;43.33;23.40;;;;;;;16.19;89.00;101738.44;5055374;28;20704;-80
2022/09/11 00:57:44;;;;;;;45.95;24.60;;;;;;;16.13;89.63;101742.84;5061407;28;20413;-79
2022/09/11 01:00:12;;;;;;;50.22;25.50;;;;;;;16.09;88.93;101742.06;5038097;28;20036;-79
2022/09/11 01:02:38;;;;;;;49.38;26.02;;;;;;;16.12;89.92;101746.91;5054102;28;20040;-79
2022/09/11 01:05:05;;;;;;;49.38;25.38;;;;;;;16.12;89.93;101736.41;5054343;28;20503;-79
2022/09/11 01:07:32;;;;;;;50.10;25.05;;;;;;;16.06;90.64;101735.16;5046545;28;20031;-79
2022/09/11 01:09:58;;;;;;;47.25;24.77;;;;;;;16.14;89.43;101736.81;5041271;28;20055;-79
2022/09/11 01:12:54;;;;;;;48.13;22.67;;;;;;;16.16;90.40;101744.91;5056283;28;20025;-79
2022/09/11 01:15:42;;;;;;;47.42;25.02;;;;;;;16.06;90.21;101749.28;5041021;28;20243;-79
2022/09/11 01:18:08;;;;;;;48.50;24.55;;;;;;;15.96;91.16;101750.84;5055151;28;20040;-79
2022/09/11 01:20:52;;;;;;;46.88;24.92;;;;;;;15.98;90.52;101753.25;5038097;28;20035;-79
2022/09/11 01:23:23;;;;;;;48.45;25.98;;;;;;;15.98;90.17;101748.44;5057533;28;20039;-79
2022/09/11 01:26:17;;;;;;;51.83;27.05;;;;;;;15.93;90.06;101754.44;5038212;28;20114;-80
2022/09/11 01:29:01;;;;;;;48.95;24.08;;;;;;;15.91;90.25;101748.38;5042508;28;20032;-79
2022/09/11 01:31:32;;;;;;;48.05;25.15;;;;;;;15.87;90.37;101735.44;5057520;28;20123;-79
2022/09/11 01:34:18;;;;;;;46.47;26.10;;;;;;;15.87;90.72;101746.75;5055248;28;20630;-79
2022/09/11 01:36:52;;;;;;;51.03;25.38;;;;;;;15.86;90.11;101737.47;5055787;28;20386;-79
2022/09/11 01:39:21;;;;;;;47.80;26.20;;;;;;;15.80;90.84;101736.22;5054759;28;20503;-80
2022/09/11 01:41:59;;;;;;;47.33;24.30;;;;;;;15.77;90.92;101731.34;5041550;28;20028;-79
2022/09/11 01:44:56;;;;;;;54.42;26.35;;;;;;;15.81;89.79;101738.66;5052840;28;20024;-80
2022/09/11 01:47:22;;;;;;;47.25;23.85;;;;;;;15.81;89.38;101732.19;5056330;28;20043;-79
2022/09/11 01:49:51;;;;;;;47.40;25.33;;;;;;;15.72;89.79;101732.53;5042421;28;20029;-79
2022/09/11 01:52:22;;;;;;;53.72;26.50;;;;;;;15.80;89.30;101736.22;5039775;28;20044;-79
2022/09/11 01:54:58;;;;;;;50.83;25.70;;;;;;;15.75;88.96;101736.59;5050343;28;20253;-80
2022/09/11 01:57:36;;;;;;;46.58;25.52;;;;;;;15.80;88.75;101737.03;5058005;28;20043;-79
2022/09/11 02:00:06;;;;;;;49.80;26.15;;;;;;;15.75;88.72;101733.78;5033846;28;20127;-79
2022/09/11 02:02:35;;;;;;;47.78;24.80;;;;;;;15.65;89.65;101744.56;5058392;28;20166;-79
2022/09/11 02:05:01;;;;;;;49.35;24.00;;;;;;;15.70;89.03;101742.56;5053137;28;20687;-79
2022/09/11 02:07:36;;;;;;;52.10;25.95;;;;;;;15.55;89.15;101741.66;5056452;28;20036;-79
2022/09/11 02:10:11;;;;;;;45.55;25.13;;;;;;;15.46;89.88;101733.53;5036575;28;21499;-80
2022/09/11 02:12:42;;;;;;;48.65;24.33;;;;;;;15.51;89.19;101738.00;5042298;28;20028;-79
2022/09/11 02:15:08;;;;;;;48.13;24.42;;;;;;;15.57;88.86;101745.69;5053157;28;20039;-80
2022/09/11 02:17:53;;;;;;;47.00;25.23;;;;;;;15.57;88.67;101740.06;5036034;28;20538;-79
2022/09/11 02:20:19;;;;;;;48.33;23.85;;;;;;;15.60;88.21;101749.75;5054240;28;20476;-79
2022/09/11 02:22:47;;;;;;;47.45;24.02;;;;;;;15.56;88.09;101749.75;5055714;28;20114;-79
2022/09/11 02:25:12;;;;;;;47.03;24.58;;;;;;;15.54;88.27;101751.34;5040571;28;20038;-80
2022/09/11 02:27:38;;;;;;;48.83;24.90;;;;;;;15.50;88.82;101748.47;5039383;28;20036;-79
2022/09/11 02:30:05;;;;;;;46.10;24.60;;;;;;;15.50;88.06;101745.66;5050122;28;20436;-80
2022/09/11 02:32:35;;;;;;;54.00;26.02;;;;;;;15.39;88.90;101762.50;5041314;28;20495;-80
2022/09/11 02:35:01;;;;;;;44.88;24.55;;;;;;;15.50;88.07;101756.13;5041060;28;20040;-79
2022/09/11 02:37:38;;;;;;;44.60;25.48;;;;;;;15.43;88.04;101754.03;5054918;28;20039;-80
2022/09/11 02:40:23;;;;;;;46.72;24.27;;;;;;;15.47;88.14;101765.38;5027259;28;20092;-79
2022/09/11 02:43:08;;;;;;;54.50;26.33;;;;;;;15.32;89.06;101761.63;5053604;28;20391;-81
2022/09/11 02:46:07;;;;;;;50.42;24.40;;;;;;;15.39;89.23;101764.47;5039559;28;20037;-79
2022/09/11 02:48:51;;;;;;;44.92;23.63;;;;;;;15.41;89.21;101756.44;5047370;28;20488;-79
2022/09/11 02:51:27;;;;;;;47.88;25.35;;;;;;;15.32;89.90;101762.41;5050535;28;20029;-79
2022/09/11 02:54:14;;;;;;;45.22;24.35;;;;;;;15.34;89.46;101771.31;5039866;28;20040;-79
2022/09/11 02:56:48;;;;;;;46.03;22.92;;;;;;;15.29;89.48;101768.03;5055636;28;20737;-79
2022/09/11 02:59:23;;;;;;;40.88;22.52;;;;;;;15.34;89.36;101776.13;5042896;28;20031;-80
2022/09/11 03:01:52;;;;;;;41.63;22.85;;;;;;;15.24;89.72;101777.66;5045528;28;20068;-79
2022/09/11 03:04:19;;;;;;;45.53;22.10;;;;;;;15.33;89.58;101783.00;5043500;28;20068;-80
2022/09/11 03:06:47;;;;;;;47.10;23.52;;;;;;;15.28;90.56;101770.03;5057757;28;20429;-79
2022/09/11 03:09:13;;;;;;;45.58;23.60;;;;;;;15.35;90.41;101786.25;5058501;28;20020;-79
2022/09/11 03:11:39;;;;;;;41.00;21.50;;;;;;;15.28;91.68;101788.97;5041656;28;20068;-79
2022/09/11 03:14:04;;;;;;;42.70;22.58;;;;;;;15.24;91.65;101778.47;5043519;28;20120;-80
2022/09/11 03:16:29;;;;;;;52.67;21.23;;;;;;;15.11;93.18;101785.59;5057593;28;20063;-79
2022/09/11 03:18:55;;;;;;;38.90;20.80;;;;;;;15.18;91.75;101768.75;5057586;28;20369;-79
2022/09/11 03:21:20;;;;;;;37.95;19.45;;;;;;;15.14;92.90;101784.81;5045926;28;20727;-79
2022/09/11 03:23:46;;;;;;;38.40;19.38;;;;;;;15.16;92.98;101781.63;5042194;28;20039;-79
2022/09/11 03:26:11;;;;;;;36.78;19.67;;;;;;;15.27;92.15;101781.72;5052766;28;20980;-80
2022/09/11 03:28:36;;;;;;;36.50;20.33;;;;;;;15.31;92.01;101793.84;5042323;28;20033;-80
2022/09/11 03:31:03;;;;;;;36.50;19.80;;;;;;;15.24;92.36;101794.56;5038060;28;20029;-79
2022/09/11 03:33:29;;;;;;;37.50;20.42;;;;;;;15.24;92.68;101801.03;5042913;28;20408;-79
2022/09/11 03:35:54;;;;;;;32.58;18.35;;;;;;;15.31;91.78;101799.50;5061249;28;20036;-79
2022/09/11 03:38:20;;;;;;;32.40;18.65;;;;;;;15.14;92.96;101798.94;5025046;28;21493;-80
2022/09/11 03:40:45;;;;;;;30.80;17.45;;;;;;;15.19;92.49;101780.84;5044660;28;20061;-79
2022/09/11 03:43:15;;;;;;;36.22;18.15;;;;;;;15.16;93.10;101796.53;5042802;28;20434;-80
2022/09/11 03:45:41;;;;;;;25.42;15.45;;;;;;;15.17;92.57;101786.06;5057715;28;20028;-79
2022/09/11 03:48:06;;;;;;;34.58;18.00;;;;;;;15.04;94.54;101788.34;5043784;28;20043;-79
2022/09/11 03:50:32;;;;;;;33.80;17.92;;;;;;;15.08;94.78;101792.00;5040971;28;20028;-80
2022/09/11 03:52:58;;;;;;;27.48;15.73;;;;;;;15.14;93.78;101789.66;5041697;28;20072;-79
2022/09/11 03:55:23;;;;;;;26.63;16.77;;;;;;;15.08;94.49;101792.00;5057869;28;20037;-79
2022/09/11 03:57:48;;;;;;;29.15;17.33;;;;;;;15.09;93.99;101787.97;5061729;28;20036;-79
2022/09/11 04:00:14;;;;;;;28.58;16.83;;;;;;;15.09;95.11;101785.16;5039983;28;20044;-79
2022/09/11 04:02:40;;;;;;;28.90;16.10;;;;;;;15.08;94.48;101797.66;5037583;28;20048;-80
2022/09/11 04:05:07;;;;;;;27.75;16.48;;;;;;;15.13;93.04;101788.03;5057955;28;20534;-79
2022/09/11 04:07:33;;;;;;;29.95;17.50;;;;;;;15.12;94.10;101795.69;5042342;28;20033;-79
2022/09/11 04:09:58;;;;;;;33.03;18.05;;;;;;;15.05;95.10;101795.59;5038920;28;20021;-79
2022/09/11 04:12:24;;;;;;;34.15;17.40;;;;;;;14.98;95.67;101799.16;5062431;28;20507;-80
2022/09/11 04:14:50;;;;;;;29.08;16.27;;;;;;;15.08;93.95;101797.66;5042168;28;20123;-79
2022/09/11 04:17:16;;;;;;;30.33;17.42;;;;;;;15.17;93.13;101798.13;5056083;28;20031;-79
2022/09/11 04:19:42;;;;;;;29.17;18.40;;;;;;;15.08;94.65;101791.22;5058483;28;20044;-79
2022/09/11 04:22:07;;;;;;;28.63;16.10;;;;;;;15.09;94.04;101793.63;5040478;28;20472;-79
2022/09/11 04:24:33;;;;;;;28.10;16.88;;;;;;;15.14;94.40;101800.94;5046293;28;20528;-80
2022/09/11 04:27:02;;;;;;;31.80;18.90;;;;;;;15.17;93.56;101794.50;5035522;28;20094;-79
2022/09/11 04:29:28;;;;;;;36.80;19.80;;;;;;;15.11;94.38;101799.69;5056268;28;20029;-79
2022/09/11 04:31:53;;;;;;;32.28;18.40;;;;;;;15.05;94.56;101798.41;5038591;28;20039;-79
2022/09/11 04:34:19;;;;;;;25.85;16.10;;;;;;;15.13;93.99;101799.31;5032802;28;22620;-79
2022/09/11 04:36:44;;;;;;;30.45;17.23;;;;;;;15.24;92.87;101801.03;5055127;28;20102;-79
2022/09/11 04:39:10;;;;;;;29.30;17.58;;;;;;;15.15;93.30;101802.53;5047434;28;20500;-79
2022/09/11 04:41:36;;;;;;;31.00;18.45;;;;;;;15.06;94.07;101796.41;5040350;28;20032;-79
2022/09/11 04:44:01;;;;;;;27.60;16.88;;;;;;;15.15;92.81;101811.81;5054213;28;20043;-79
2022/09/11 04:46:27;;;;;;;28.85;16.45;;;;;;;15.11;93.41;101810.16;5054187;28;20044;-79
2022/09/11 04:48:54;;;;;;;27.45;17.08;;;;;;;15.03;94.40;101818.56;5033215;28;20092;-79
2022/09/11 04:51:29;;;;;;;28.17;17.27;;;;;;;14.98;94.29;101820.91;5056050;28;21440;-79
2022/09/11 04:53:56;;;;;;;30.90;18.15;;;;;;;15.06;93.41;101819.78;5057789;28;20124;-79
2022/09/11 04:56:23;;;;;;;27.27;17.15;;;;;;;15.12;93.46;101829.50;5062232;28;20115;-79
2022/09/11 04:58:54;;;;;;;30.33;18.15;;;;;;;15.05;94.62;101832.25;5058931;28;20036;-79
2022/09/11 05:01:20;;;;;;;30.05;17.73;;;;;;;14.97;94.25;101831.38;5054525;28;20527;-79
2022/09/11 05:03:45;;;;;;;28.10;17.63;;;;;;;15.02;94.02;101833.84;5061788;28;20068;-79
2022/09/11 05:06:15;;;;;;;29.58;16.45;;;;;;;15.00;94.48;101832.59;5044412;28;20028;-79
2022/09/11 05:08:41;;;;;;;27.02;16.27;;;;;;;14.98;95.14;101843.44;5039460;28;20039;-79
2022/09/11 05:11:13;;;;;;;31.20;15.35;;;;;;;15.04;94.08;101837.06;5040716;28;20488;-79
2022/09/11 05:13:39;;;;;;;23.80;15.13;;;;;;;15.04;93.25;101836.28;5050793;28;20033;-79
2022/09/11 05:16:10;;;;;;;23.25;14.43;;;;;;;14.97;93.98;101841.84;5045019;28;20046;-79
2022/09/11 05:18:36;;;;;;;28.23;17.23;;;;;;;15.00;95.55;101847.50;5059574;28;20402;-80
2022/09/11 05:21:05;;;;;;;23.35;15.02;;;;;;;14.95;95.09;101861.94;5054991;28;20563;-79
2022/09/11 05:23:31;;;;;;;30.30;16.38;;;;;;;15.02;94.26;101862.03;5046638;28;20063;-79
2022/09/11 05:26:03;;;;;;;24.42;15.20;;;;;;;14.93;95.89;101855.88;5059215;28;20085;-79
2022/09/11 05:28:29;;;;;;;24.52;14.82;;;;;;;15.01;94.78;101859.59;5042383;28;20067;-79
2022/09/11 05:30:56;;;;;;;26.35;15.15;;;;;;;15.02;94.89;101864.84;5041423;28;20545;-79
2022/09/11 05:33:23;;;;;;;25.83;14.88;;;;;;;14.97;95.84;101867.22;5060020;28;20423;-80
2022/09/11 05:35:52;;;;;;;27.25;15.10;;;;;;;14.94;95.51;101854.66;5049349;28;20566;-79
2022/09/11 05:38:19;;;;;;;23.88;14.65;;;;;;;15.07;94.56;101872.13;5060220;28;20029;-79
2022/09/11 05:40:50;;;;;;;31.30;16.02;;;;;;;14.97;95.79;101870.03;5045846;28;20044;-81
2022/09/11 05:43:18;;;;;;;24.40;14.82;;;;;;;15.04;94.74;101870.91;5046618;28;20385;-79
2022/09/11 05:45:52;;;;;;;26.63;14.80;;;;;;;14.94;95.57;101851.06;5059243;28;20024;-80
2022/09/11 05:48:18;;;;;;;23.48;15.18;;;;;;;15.01;95.40;101877.34;5060736;28;20169;-79
2022/09/11 05:50:52;;;;;;;35.88;16.15;;;;;;;15.02;94.71;101872.50;5047539;28;20049;-79
2022/09/11 05:53:19;;;;;;;23.60;15.65;;;;;;;15.06;94.37;101879.00;5049437;28;20029;-79
2022/09/11 05:55:46;;;;;;;20.00;14.18;;;;;;;15.10;95.07;101881.88;5059037;28;20024;-79
2022/09/11 05:58:11;;;;;;;20.05;13.65;;;;;;;15.15;93.93;101884.31;5048169;28;20031;-79
2022/09/11 06:00:36;;;;;;;22.63;14.48;;;;;;;15.13;94.83;101890.34;5043541;28;20036;-79
2022/09/11 06:03:02;;;;;;;24.90;14.65;;;;;;;15.17;93.94;101891.19;5062341;28;20057;-79
2022/09/11 06:05:27;;;;;;;28.85;15.73;;;;;;;15.24;94.04;101896.94;5058932;28;20029;-79
2022/09/11 06:07:53;;;;;;;24.52;14.25;;;;;;;15.14;93.50;101889.16;5054772;28;20111;-79
2022/09/11 06:10:18;;;;;;;24.60;15.43;;;;;;;15.18;94.76;101892.84;5040832;28;20408;-79
2022/09/11 06:12:43;;;;;;;27.83;17.20;;;;;;;15.04;96.00;101901.94;5055616;28;20696;-80
2022/09/11 06:15:09;;;;;;;23.25;14.82;;;;;;;15.15;94.57;101902.06;5037185;28;20033;-80
2022/09/11 06:17:34;;;;;;;23.52;14.77;;;;;;;15.19;94.28;101911.38;5053108;28;20399;-80
2022/09/11 06:20:00;;;;;;;25.00;15.40;;;;;;;15.14;94.74;101919.38;5055803;28;20135;-79
2022/09/11 06:22:30;;;;;;;19.60;13.75;;;;;;;15.28;94.01;101913.06;5043325;28;20050;-79
2022/09/11 06:24:56;;;;;;;24.40;15.02;;;;;;;15.18;94.39;101918.22;5052399;28;20657;-80
2022/09/11 06:27:22;;;;;;;24.67;15.45;;;;;;;15.20;95.20;101917.81;5039308;28;20025;-80
2022/09/11 06:29:47;;;;;;;21.88;14.02;;;;;;;15.21;94.73;101913.81;5055715;28;20082;-80
2022/09/11 06:32:12;;;;;;;31.55;14.15;;;;;;;15.24;93.96;101924.31;5035950;28;20451;-79
2022/09/11 06:34:38;;;;;;;21.45;13.32;;;;;;;15.21;94.48;101919.44;5059260;28;20078;-80
2022/09/11 06:37:03;;;;;;;23.67;15.93;;;;;;;15.26;94.83;101916.28;5040507;28;20028;-80
2022/09/11 06:39:29;;;;;;;23.00;14.52;;;;;;;15.19;95.71;101904.91;5059220;28;20456;-79
2022/09/11 06:41:54;;;;;;;19.83;12.80;;;;;;;15.27;95.19;101906.63;5045446;28;20027;-80
2022/09/11 06:44:19;;;;;;;21.08;12.73;;;;;;;15.29;95.04;101917.53;5045234;28;20028;-80
2022/09/11 06:46:46;;;;;;;25.17;14.00;;;;;;;15.29;94.77;101909.06;5065405;28;20024;-80
2022/09/11 06:49:11;;;;;;;21.48;13.43;;;;;;;15.24;96.31;101919.50;5043793;28;20025;-80
2022/09/11 06:51:38;;;;;;;21.75;13.80;;;;;;;15.07;97.17;101914.44;5063640;28;20047;-80
2022/09/11 06:54:04;;;;;;;25.17;13.15;;;;;;;15.33;94.99;101909.94;5051039;28;20028;-79
2022/09/11 06:56:31;;;;;;;26.73;16.02;;;;;;;15.42;95.93;101913.25;5063901;28;20308;-79
2022/09/11 06:58:57;;;;;;;20.98;13.63;;;;;;;15.45;93.55;101912.47;5047472;28;20029;-79
2022/09/11 07:01:23;;;;;;;20.50;13.38;;;;;;;15.55;93.28;101911.75;5040984;28;20180;-79
2022/09/11 07:03:51;;;;;;;20.10;13.82;;;;;;;15.63;93.09;101912.66;5041429;28;20033;-80
2022/09/11 07:06:19;;;;;;;28.17;14.90;;;;;;;15.38;95.76;101918.03;5036279;28;20052;-79
2022/09/11 07:09:00;;;;;;;21.98;13.20;;;;;;;15.54;93.61;101910.16;5054438;28;20024;-79
2022/09/11 07:11:26;;;;;;;23.08;13.77;;;;;;;15.46;95.24;101914.09;5042304;28;20029;-81
2022/09/11 07:13:52;;;;;;;20.05;13.40;;;;;;;15.55;94.24;101911.75;5040965;28;20028;-80
2022/09/11 07:16:18;;;;;;;23.83;14.95;;;;;;;15.49;98.46;101920.97;5058013;28;20370;-79
2022/09/11 07:18:45;;;;;;;19.50;12.45;;;;;;;15.53;96.12;101925.44;5047518;28;20031;-79
2022/09/11 07:21:15;;;;;;;22.75;13.48;;;;;;;15.67;94.23;101916.34;5043413;28;20062;-79
2022/09/11 07:23:42;;;;;;;23.85;14.35;;;;;;;15.76;95.89;101911.19;5038786;28;20032;-79
2022/09/11 07:26:10;;;;;;;24.35;14.35;;;;;;;15.78;93.13;101914.44;5035199;28;20128;-80
2022/09/11 07:28:37;;;;;;;19.98;13.57;;;;;;;15.78;95.03;101919.28;5059167;28;20040;-79
2022/09/11 07:31:11;;;;;;;28.92;16.35;;;;;;;15.74;98.30;101918.44;5042260;28;20036;-80
2022/09/11 07:33:46;;;;;;;18.77;11.93;;;;;;;15.89;94.34;101913.72;5053103;28;20063;-85
2022/09/11 07:36:15;;;;;;;21.90;12.43;;;;;;;15.64;94.83;101909.47;5038884;28;20029;-86
2022/09/11 07:38:42;;;;;;;22.40;14.02;;;;;;;15.71;98.08;101913.56;5055130;28;20116;-83
2022/09/11 07:41:09;;;;;;;28.20;16.73;;;;;;;15.82;97.11;101925.78;5045201;28;20463;-80
2022/09/11 07:43:36;;;;;;;31.25;17.90;;;;;;;15.91;97.58;101929.06;5053053;28;20028;-79
2022/09/11 07:46:02;;;;;;;30.63;19.15;;;;;;;15.98;98.84;101929.16;5048621;28;20496;-79
2022/09/11 07:48:28;;;;;;;33.90;19.75;;;;;;;15.99;99.04;101930.78;5043066;28;20136;-79
2022/09/11 07:50:59;;;;;;;32.28;19.90;;;;;;;15.95;100.00;101927.09;5066017;28;20448;-79
2022/09/11 07:53:25;;;;;;;33.28;19.65;;;;;;;15.83;100.00;101924.56;5077247;28;20835;-79
2022/09/11 07:55:51;;;;;;;33.55;19.27;;;;;;;15.97;100.00;101938.81;5058480;28;20029;-79
2022/09/11 07:58:16;;;;;;;35.67;19.80;;;;;;;16.00;100.00;101926.75;5047009;28;20046;-79
2022/09/11 08:00:42;;;;;;;32.72;20.15;;;;;;;16.10;100.00;101935.69;5056111;28;20037;-79
2022/09/11 08:03:07;;;;;;;30.08;18.83;;;;;;;16.09;100.00;101934.09;5051054;28;20176;-79
2022/09/11 08:05:33;;;;;;;36.53;21.13;;;;;;;16.14;100.00;101930.91;5041448;28;20094;-79
2022/09/11 08:07:58;;;;;;;28.75;17.60;;;;;;;16.19;100.00;101931.34;5058775;28;20043;-79
2022/09/11 08:10:23;;;;;;;29.90;17.85;;;;;;;16.25;100.00;101928.97;5043466;28;20111;-79
2022/09/11 08:12:49;;;;;;;34.67;18.63;;;;;;;16.30;100.00;101931.44;5055097;28;20028;-80
2022/09/11 08:15:15;;;;;;;30.45;17.67;;;;;;;16.31;100.00;101930.22;5049193;28;20420;-80
2022/09/11 08:17:40;;;;;;;30.08;18.27;;;;;;;16.34;99.27;101932.28;5047699;28;20434;-79
2022/09/11 08:20:06;;;;;;;31.73;18.70;;;;;;;16.41;100.00;101940.00;5065036;28;20043;-79
2022/09/11 08:22:31;;;;;;;29.50;18.75;;;;;;;16.44;99.25;101942.84;5060030;28;20393;-79
2022/09/11 08:24:56;;;;;;;26.08;16.55;;;;;;;16.45;98.52;101947.28;5044936;28;20056;-80
2022/09/11 08:27:22;;;;;;;29.42;17.55;;;;;;;16.49;98.63;101946.50;5044629;28;20054;-80
2022/09/11 08:29:47;;;;;;;29.48;17.85;;;;;;;16.45;98.93;101935.97;5045122;28;20384;-79
2022/09/11 08:32:12;;;;;;;32.08;18.17;;;;;;;16.52;97.94;101943.69;5042804;28;20035;-80
2022/09/11 08:34:38;;;;;;;29.58;18.90;;;;;;;16.62;100.00;101944.97;5045621;28;20044;-80
2022/09/11 08:37:03;;;;;;;29.95;17.92;;;;;;;16.61;100.00;101937.69;5044676;28;20047;-80
2022/09/11 08:39:28;;;;;;;29.55;17.45;;;;;;;16.66;99.02;101948.63;5045196;28;20107;-80
2022/09/11 08:42:01;;;;;;;30.42;18.30;;;;;;;16.76;98.86;101949.91;5047972;28;20049;-80
2022/09/11 08:44:33;;;;;;;34.78;22.10;;;;;;;16.81;100.00;101953.19;5061955;28;20089;-80
2022/09/11 08:47:06;;;;;;;27.45;18.60;;;;;;;16.86;97.68;101955.66;5065243;28;20044;-80
2022/09/11 08:49:45;;;;;;;29.38;18.05;;;;;;;16.95;96.85;101951.66;5062455;28;20028;-80
2022/09/11 08:52:13;;;;;;;32.85;18.60;;;;;;;16.98;96.98;101956.53;5064276;28;20492;-80
2022/09/11 08:54:41;;;;;;;28.70;17.80;;;;;;;17.02;97.98;101966.66;5046750;28;20188;-80
2022/09/11 08:57:41;;;;;;;31.05;17.58;;;;;;;17.22;97.83;101960.66;5060112;28;20059;-80
2022/09/11 09:00:22;;;;;;;27.15;16.10;;;;;;;17.46;97.06;101959.16;5061078;28;20119;-80
2022/09/11 09:03:01;;;;;;;27.90;17.50;;;;;;;17.43;96.66;101968.44;5066578;28;20442;-80
2022/09/11 09:06:04;;;;;;;30.48;17.20;;;;;;;17.60;96.37;101964.88;5040513;28;20383;-80
2022/09/11 09:08:36;;;;;;;20.38;11.10;;;;;;;17.74;94.05;101968.94;5062775;28;20035;-80
2022/09/11 09:11:13;;;;;;;20.60;13.18;;;;;;;17.64;92.16;101968.50;5043056;28;20516;-80
2022/09/11 09:13:54;;;;;;;23.17;11.20;;;;;;;17.70;92.80;101979.44;5044643;28;20476;-80
2022/09/11 09:16:56;;;;;;;20.73;11.77;;;;;;;17.67;92.15;101973.38;5064412;28;20043;-80
2022/09/11 09:19:59;;;;;;;24.15;14.30;;;;;;;17.89;92.40;101976.25;5065169;28;20078;-80
2022/09/11 09:22:33;;;;;;;6.93;3.80;;;;;;;19.05;83.06;101978.63;5058462;28;20068;-82
2022/09/11 09:25:05;;;;;;;7.15;4.45;;;;;;;19.71;79.33;101977.13;5055265;28;20481;-82
2022/09/11 09:27:48;;;;;;;;;;;;;;;19.75;78.72;101975.09;5058463;28;20400;-83
2022/09/11 09:30:26;;;;;;;7.60;4.32;;;;;;;19.67;78.76;101974.31;5039192;28;20296;-83
2022/09/11 09:33:18;;;;;;;8.82;5.40;;;;;;;19.82;78.19;101985.63;5055695;28;20029;-83
2022/09/11 09:35:44;;;;;;;8.77;5.93;;;;;;;19.89;77.90;101974.19;5039252;28;20439;-82
2022/09/11 09:38:12;;;;;;;11.02;6.40;;;;;;;19.82;77.94;101985.63;5053243;28;20044;-83
2022/09/11 09:40:53;;;;;;;14.15;6.00;;;;;;;20.02;77.55;101977.34;5040085;28;20103;-84
2022/09/11 09:43:50;;;;;;;12.60;6.10;;;;;;;19.87;77.99;101976.66;5048925;28;20098;-79
2022/09/11 09:46:27;;;;;;;13.27;6.90;;;;;;;19.97;77.82;101987.13;5038855;28;20124;-79
2022/09/11 09:48:54;;;;;;;14.30;7.90;;;;;;;19.81;78.81;101978.31;5052289;28;20017;-78
2022/09/11 09:51:20;;;;;;;15.23;7.75;;;;;;;20.03;77.82;101984.66;5046334;28;20726;-79
2022/09/11 09:53:54;;;;;;;20.77;9.23;;;;;;;20.14;77.83;101990.28;5038053;28;20068;-83
2022/09/11 09:56:22;;;;;;;14.88;7.68;;;;;;;19.59;79.99;101978.41;5054850;28;20040;-82
2022/09/11 09:58:59;;;;;;;14.73;7.07;;;;;;;19.84;79.76;101981.13;5041608;28;20063;-83
2022/09/11 10:01:46;;;;;;;20.88;7.60;;;;;;;20.12;77.41;101979.31;5039221;28;20503;-83
2022/09/11 10:04:22;;;;;;;16.02;6.65;;;;;;;20.17;76.90;101978.84;5046455;28;20118;-83
2022/09/11 10:06:52;;;;;;;14.52;7.53;;;;;;;20.17;76.48;101978.06;5051188;28;20484;-84
2022/09/11 10:09:27;;;;;;;11.65;7.20;;;;;;;20.04;76.88;101981.38;5029493;28;20094;-82
2022/09/11 10:12:05;;;;;;;18.45;6.47;;;;;;;20.25;75.64;101980.41;5041300;28;20547;-83
2022/09/11 10:14:48;;;;;;;10.00;5.80;;;;;;;20.21;75.61;101984.53;5040534;28;20028;-82
2022/09/11 10:17:30;;;;;;;11.20;5.53;;;;;;;20.22;74.96;101977.63;5036918;28;20077;-84
2022/09/11 10:20:12;;;;;;;17.20;6.78;;;;;;;20.10;75.25;101991.09;5054372;28;20057;-82
2022/09/11 10:22:38;;;;;;;9.10;4.95;;;;;;;20.09;75.22;101989.50;5040327;28;20067;-86
2022/09/11 10:25:14;;;;;;;8.95;5.13;;;;;;;20.10;75.17;101988.25;5020373;28;20237;-84
2022/09/11 10:27:43;;;;;;;9.48;5.13;;;;;;;20.13;75.12;101988.66;5030188;28;20134;-85
2022/09/11 10:30:28;;;;;;;13.80;5.28;;;;;;;20.05;75.15;101988.72;5053087;28;20554;-85
2022/09/11 10:32:56;;;;;;;14.35;5.18;;;;;;;20.06;74.64;101978.94;5052975;28;20504;-82
2022/09/11 10:35:25;;;;;;;6.82;4.65;;;;;;;20.02;74.85;101978.16;5054221;28;20059;-86
2022/09/11 10:38:10;;;;;;;12.57;6.20;;;;;;;20.04;74.46;101970.03;5054537;28;20067;-82
2022/09/11 10:40:37;;;;;;;12.15;4.60;;;;;;;20.02;74.26;101966.78;5049030;28;20037;-81
2022/09/11 10:43:03;;;;;;;12.00;4.68;;;;;;;20.14;73.64;101968.34;5054586;28;20033;-82
2022/09/11 10:45:28;;;;;;;9.20;4.50;;;;;;;20.15;73.21;101980.50;5052202;28;20403;-83
2022/09/11 10:47:54;;;;;;;7.50;4.28;;;;;;;20.04;73.39;101966.38;5052870;28;20147;-83
2022/09/11 10:50:23;;;;;;;8.48;4.72;;;;;;;20.01;73.39;101965.19;5036915;28;20060;-82
2022/09/11 10:53:04;;;;;;;5.75;3.67;;;;;;;20.16;72.89;101970.78;5034743;28;20051;-83
2022/09/11 10:55:35;;;;;;;6.13;4.20;;;;;;;20.12;72.86;101970.78;5032569;28;22511;-82
2022/09/11 10:58:12;;;;;;;8.90;4.60;;;;;;;19.90;74.25;101970.13;5047849;28;20044;-83
2022/09/11 11:00:38;;;;;;;6.47;4.18;;;;;;;19.92;73.28;101962.00;5037506;28;20029;-83
2022/09/11 11:03:20;;;;;;;7.53;4.43;;;;;;;20.10;72.48;101962.66;5037782;28;20507;-82
2022/09/11 11:06:07;;;;;;;7.80;4.20;;;;;;;20.13;72.42;101966.69;5050396;28;20120;-82
2022/09/11 11:08:45;;;;;;;7.50;5.38;;;;;;;19.92;72.25;101956.31;5038835;28;20314;-82
2022/09/11 11:11:16;;;;;;;6.55;4.40;;;;;;;20.16;72.34;101965.09;5052614;28;20489;-82
2022/09/11 11:14:20;;;;;;;10.10;4.33;;;;;;;20.41;71.59;101962.84;5033454;28;20623;-82
2022/09/11 11:16:48;;;;;;;;;;;;;;;20.23;71.95;101965.00;5052956;28;20281;-82
2022/09/11 11:19:40;;;;;;;10.07;4.75;;;;;;;20.65;72.10;101958.16;5026802;28;19971;-82
2022/09/11 11:22:14;;;;;;;7.47;4.28;;;;;;;20.73;72.63;101967.44;5056267;28;20075;-82
2022/09/11 11:25:05;;;;;;;5.80;4.32;;;;;;;20.83;70.36;101963.66;5033419;28;20057;-81
2022/09/11 11:27:50;;;;;;;7.75;4.63;;;;;;;20.81;70.90;101971.00;5040073;28;20024;-82